sensor_id;sensor_type;location;lat;lon;timestamp;temperature;humidity
13389;DHT22;6764;53.250;10.410;2022-12-29T00:02:12;8.70;99.90
13389;DHT22;6764;53.250;10.410;2022-12-29T00:04:38;8.70;99.90
13389;DHT22;6764;53.250;10.410;2022-12-29T00:07:05;8.70;99.90
13389;DHT22;6764;53.250;10.410;2022-12-29T00:09:31;8.70;99.90
13389;DHT22;6764;53.250;10.410;2022-12-29T00:11:57;8.80;99.90
13389;DHT22;6764;53.250;10.410;2022-12-29T00:14:23;8.80;99.90
13389;DHT22;6764;53.250;10.410;2022-12-29T00:17:07;8.80;99.90
13389;DHT22;6764;53.250;10.410;2022-12-29T00:19:33;8.80;99.90
13389;DHT22;6764;53.250;10.410;2022-12-29T00:22:18;8.80;99.90
13389;DHT22;6764;53.250;10.410;2022-12-29T00:25:02;8.80;99.90
13389;DHT22;6764;53.250;10.410;2022-12-29T00:27:35;8.80;99.90
13389;DHT22;6764;53.250;10.410;2022-12-29T00:30:21;8.90;99.90
13389;DHT22;6764;53.250;10.410;2022-12-29T00:36:07;8.80;99.90
13389;DHT22;6764;53.250;10.410;2022-12-29T00:38:37;8.90;99.90
13389;DHT22;6764;53.250;10.410;2022-12-29T00:41:22;8.80;99.90
13389;DHT22;6764;53.250;10.410;2022-12-29T00:44:07;8.80;99.90
13389;DHT22;6764;53.250;10.410;2022-12-29T00:46:40;8.80;99.90
13389;DHT22;6764;53.250;10.410;2022-12-29T00:49:07;8.80;99.90
13389;DHT22;6764;53.250;10.410;2022-12-29T00:51:52;8.80;99.90
13389;DHT22;6764;53.250;10.410;2022-12-29T00:54:19;8.90;99.90
13389;DHT22;6764;53.250;10.410;2022-12-29T00:56:49;8.90;99.90
13389;DHT22;6764;53.250;10.410;2022-12-29T00:59:15;9.00;99.90
13389;DHT22;6764;53.250;10.410;2022-12-29T01:01:41;9.00;99.90
13389;DHT22;6764;53.250;10.410;2022-12-29T01:04:07;9.00;99.90
13389;DHT22;6764;53.250;10.410;2022-12-29T01:06:34;9.00;99.90
13389;DHT22;6764;53.250;10.410;2022-12-29T01:09:00;9.00;99.90
13389;DHT22;6764;53.250;10.410;2022-12-29T01:11:45;9.00;99.90
13389;DHT22;6764;53.250;10.410;2022-12-29T01:14:10;9.00;99.90
13389;DHT22;6764;53.250;10.410;2022-12-29T01:16:36;9.00;99.90
13389;DHT22;6764;53.250;10.410;2022-12-29T01:19:02;9.00;99.90
13389;DHT22;6764;53.250;10.410;2022-12-29T01:21:28;9.00;99.90
13389;DHT22;6764;53.250;10.410;2022-12-29T01:23:53;9.00;99.90
13389;DHT22;6764;53.250;10.410;2022-12-29T01:26:19;9.00;99.90
13389;DHT22;6764;53.250;10.410;2022-12-29T01:28:45;9.00;99.90
13389;DHT22;6764;53.250;10.410;2022-12-29T01:31:13;9.00;99.90
13389;DHT22;6764;53.250;10.410;2022-12-29T01:33:39;9.00;99.90
13389;DHT22;6764;53.250;10.410;2022-12-29T01:36:07;9.00;99.90
13389;DHT22;6764;53.250;10.410;2022-12-29T01:38:34;9.10;99.90
13389;DHT22;6764;53.250;10.410;2022-12-29T01:41:00;9.10;99.90
13389;DHT22;6764;53.250;10.410;2022-12-29T01:43:48;9.10;99.90
13389;DHT22;6764;53.250;10.410;2022-12-29T01:46:41;9.10;99.90
13389;DHT22;6764;53.250;10.410;2022-12-29T01:49:22;9.10;99.90
13389;DHT22;6764;53.250;10.410;2022-12-29T01:52:02;9.20;99.90
13389;DHT22;6764;53.250;10.410;2022-12-29T01:54:43;9.20;99.90
13389;DHT22;6764;53.250;10.410;2022-12-29T01:57:12;9.30;99.90
13389;DHT22;6764;53.250;10.410;2022-12-29T01:59:43;9.30;99.90
13389;DHT22;6764;53.250;10.410;2022-12-29T02:02:11;9.30;99.90
13389;DHT22;6764;53.250;10.410;2022-12-29T02:04:40;9.30;99.90
13389;DHT22;6764;53.250;10.410;2022-12-29T02:07:14;9.30;99.90
13389;DHT22;6764;53.250;10.410;2022-12-29T02:09:42;9.40;99.90
13389;DHT22;6764;53.250;10.410;2022-12-29T02:12:09;9.40;99.90
13389;DHT22;6764;53.250;10.410;2022-12-29T02:14:35;9.40;99.90
13389;DHT22;6764;53.250;10.410;2022-12-29T02:37:05;9.50;99.90
13389;DHT22;6764;53.250;10.410;2022-12-29T02:39:43;9.50;99.90
13389;DHT22;6764;53.250;10.410;2022-12-29T02:42:36;9.50;99.90
13389;DHT22;6764;53.250;10.410;2022-12-29T02:45:32;9.50;99.90
13389;DHT22;6764;53.250;10.410;2022-12-29T02:50:41;9.60;99.90
13389;DHT22;6764;53.250;10.410;2022-12-29T02:53:16;9.60;99.90
13389;DHT22;6764;53.250;10.410;2022-12-29T02:55:49;9.60;99.90
13389;DHT22;6764;53.250;10.410;2022-12-29T02:58:18;9.70;99.90
13389;DHT22;6764;53.250;10.410;2022-12-29T03:04:19;9.70;99.90
13389;DHT22;6764;53.250;10.410;2022-12-29T03:12:46;9.70;99.90
13389;DHT22;6764;53.250;10.410;2022-12-29T03:15:14;9.70;99.90
13389;DHT22;6764;53.250;10.410;2022-12-29T03:18:25;9.70;99.90
13389;DHT22;6764;53.250;10.410;2022-12-29T03:20:57;9.70;99.90
13389;DHT22;6764;53.250;10.410;2022-12-29T03:23:25;9.70;99.90
13389;DHT22;6764;53.250;10.410;2022-12-29T03:25:55;9.70;99.90
13389;DHT22;6764;53.250;10.410;2022-12-29T03:28:30;9.70;99.90
13389;DHT22;6764;53.250;10.410;2022-12-29T03:30:57;9.70;99.90
13389;DHT22;6764;53.250;10.410;2022-12-29T03:33:25;9.80;99.90
13389;DHT22;6764;53.250;10.410;2022-12-29T03:35:58;9.80;99.90
13389;DHT22;6764;53.250;10.410;2022-12-29T03:38:35;9.80;99.90
13389;DHT22;6764;53.250;10.410;2022-12-29T03:41:07;9.80;99.90
13389;DHT22;6764;53.250;10.410;2022-12-29T03:43:34;9.80;99.90
13389;DHT22;6764;53.250;10.410;2022-12-29T03:46:00;9.80;99.90
13389;DHT22;6764;53.250;10.410;2022-12-29T03:48:25;9.80;99.90
13389;DHT22;6764;53.250;10.410;2022-12-29T03:50:51;9.80;99.90
13389;DHT22;6764;53.250;10.410;2022-12-29T03:53:17;9.80;99.90
13389;DHT22;6764;53.250;10.410;2022-12-29T03:55:42;9.80;99.90
13389;DHT22;6764;53.250;10.410;2022-12-29T03:58:08;9.90;99.90
13389;DHT22;6764;53.250;10.410;2022-12-29T04:00:33;9.90;99.90
13389;DHT22;6764;53.250;10.410;2022-12-29T04:02:59;9.80;99.90
13389;DHT22;6764;53.250;10.410;2022-12-29T04:05:24;9.80;99.90
13389;DHT22;6764;53.250;10.410;2022-12-29T04:07:50;9.80;99.90
13389;DHT22;6764;53.250;10.410;2022-12-29T04:10:16;9.80;99.90
13389;DHT22;6764;53.250;10.410;2022-12-29T04:12:41;9.80;99.90
13389;DHT22;6764;53.250;10.410;2022-12-29T04:15:08;9.80;99.90
13389;DHT22;6764;53.250;10.410;2022-12-29T04:17:34;9.70;99.90
13389;DHT22;6764;53.250;10.410;2022-12-29T04:19:59;9.80;99.90
13389;DHT22;6764;53.250;10.410;2022-12-29T04:23:04;9.80;99.90
13389;DHT22;6764;53.250;10.410;2022-12-29T04:25:31;9.80;99.90
13389;DHT22;6764;53.250;10.410;2022-12-29T04:27:57;9.90;99.90
13389;DHT22;6764;53.250;10.410;2022-12-29T04:30:22;9.90;99.90
13389;DHT22;6764;53.250;10.410;2022-12-29T04:32:48;9.90;99.90
13389;DHT22;6764;53.250;10.410;2022-12-29T04:35:14;9.90;99.90
13389;DHT22;6764;53.250;10.410;2022-12-29T04:37:39;9.90;99.90
13389;DHT22;6764;53.250;10.410;2022-12-29T04:40:05;9.90;99.90
13389;DHT22;6764;53.250;10.410;2022-12-29T04:42:31;9.90;99.90
13389;DHT22;6764;53.250;10.410;2022-12-29T04:44:57;9.90;99.90
13389;DHT22;6764;53.250;10.410;2022-12-29T04:47:22;9.90;99.90
13389;DHT22;6764;53.250;10.410;2022-12-29T04:49:48;9.90;99.90
13389;DHT22;6764;53.250;10.410;2022-12-29T04:52:14;9.90;99.90
13389;DHT22;6764;53.250;10.410;2022-12-29T04:54:39;9.90;99.90
13389;DHT22;6764;53.250;10.410;2022-12-29T04:57:05;9.90;99.90
13389;DHT22;6764;53.250;10.410;2022-12-29T04:59:30;9.90;99.90
13389;DHT22;6764;53.250;10.410;2022-12-29T05:01:56;9.90;99.90
13389;DHT22;6764;53.250;10.410;2022-12-29T05:04:22;9.80;99.90
13389;DHT22;6764;53.250;10.410;2022-12-29T05:06:47;9.80;99.90
13389;DHT22;6764;53.250;10.410;2022-12-29T05:09:16;9.90;99.90
13389;DHT22;6764;53.250;10.410;2022-12-29T05:11:41;9.90;99.90
13389;DHT22;6764;53.250;10.410;2022-12-29T05:14:07;9.90;99.90
13389;DHT22;6764;53.250;10.410;2022-12-29T05:16:33;9.90;99.90
13389;DHT22;6764;53.250;10.410;2022-12-29T05:18:58;9.90;99.90
13389;DHT22;6764;53.250;10.410;2022-12-29T05:21:24;9.90;99.90
13389;DHT22;6764;53.250;10.410;2022-12-29T05:23:49;9.90;99.90
13389;DHT22;6764;53.250;10.410;2022-12-29T05:26:15;9.90;99.90
13389;DHT22;6764;53.250;10.410;2022-12-29T05:28:40;9.90;99.90
13389;DHT22;6764;53.250;10.410;2022-12-29T05:31:06;9.90;99.90
13389;DHT22;6764;53.250;10.410;2022-12-29T05:33:32;9.90;99.90
13389;DHT22;6764;53.250;10.410;2022-12-29T05:36:04;9.90;99.90
13389;DHT22;6764;53.250;10.410;2022-12-29T05:38:29;9.90;99.90
13389;DHT22;6764;53.250;10.410;2022-12-29T05:40:55;10.00;99.90
13389;DHT22;6764;53.250;10.410;2022-12-29T05:43:20;10.00;99.90
13389;DHT22;6764;53.250;10.410;2022-12-29T05:45:48;10.00;99.90
13389;DHT22;6764;53.250;10.410;2022-12-29T05:48:15;10.00;99.90
13389;DHT22;6764;53.250;10.410;2022-12-29T05:50:41;10.00;99.90
13389;DHT22;6764;53.250;10.410;2022-12-29T05:53:06;10.00;99.90
13389;DHT22;6764;53.250;10.410;2022-12-29T05:55:32;10.10;99.90
13389;DHT22;6764;53.250;10.410;2022-12-29T05:57:57;10.10;99.90
13389;DHT22;6764;53.250;10.410;2022-12-29T06:00:23;10.10;99.90
13389;DHT22;6764;53.250;10.410;2022-12-29T06:02:49;10.10;99.90
13389;DHT22;6764;53.250;10.410;2022-12-29T06:05:15;10.10;99.90
13389;DHT22;6764;53.250;10.410;2022-12-29T06:07:41;10.10;99.90
13389;DHT22;6764;53.250;10.410;2022-12-29T06:10:07;10.10;99.90
13389;DHT22;6764;53.250;10.410;2022-12-29T06:12:33;10.20;99.90
13389;DHT22;6764;53.250;10.410;2022-12-29T06:14:59;10.20;99.90
13389;DHT22;6764;53.250;10.410;2022-12-29T06:17:24;10.30;99.90
13389;DHT22;6764;53.250;10.410;2022-12-29T06:19:50;10.30;99.90
13389;DHT22;6764;53.250;10.410;2022-12-29T06:22:15;10.30;99.90
13389;DHT22;6764;53.250;10.410;2022-12-29T06:24:41;10.30;99.90
13389;DHT22;6764;53.250;10.410;2022-12-29T06:27:07;10.30;99.90
13389;DHT22;6764;53.250;10.410;2022-12-29T06:29:32;10.20;99.90
13389;DHT22;6764;53.250;10.410;2022-12-29T06:31:58;10.20;99.90
13389;DHT22;6764;53.250;10.410;2022-12-29T06:34:24;10.20;99.90
13389;DHT22;6764;53.250;10.410;2022-12-29T06:36:50;10.20;99.90
13389;DHT22;6764;53.250;10.410;2022-12-29T06:39:16;10.20;99.90
13389;DHT22;6764;53.250;10.410;2022-12-29T06:41:41;10.20;99.90
13389;DHT22;6764;53.250;10.410;2022-12-29T06:44:07;10.20;99.90
13389;DHT22;6764;53.250;10.410;2022-12-29T06:46:32;10.20;99.90
13389;DHT22;6764;53.250;10.410;2022-12-29T06:48:58;10.30;99.90
13389;DHT22;6764;53.250;10.410;2022-12-29T06:51:24;10.40;99.90
13389;DHT22;6764;53.250;10.410;2022-12-29T06:53:49;10.30;99.90
13389;DHT22;6764;53.250;10.410;2022-12-29T06:56:15;10.30;99.90
13389;DHT22;6764;53.250;10.410;2022-12-29T06:58:40;10.30;99.90
13389;DHT22;6764;53.250;10.410;2022-12-29T07:01:06;10.30;99.90
13389;DHT22;6764;53.250;10.410;2022-12-29T07:03:32;10.40;99.90
13389;DHT22;6764;53.250;10.410;2022-12-29T07:05:57;10.40;99.90
13389;DHT22;6764;53.250;10.410;2022-12-29T07:08:24;10.30;99.90
13389;DHT22;6764;53.250;10.410;2022-12-29T07:10:50;10.40;99.90
13389;DHT22;6764;53.250;10.410;2022-12-29T07:13:15;10.30;99.90
13389;DHT22;6764;53.250;10.410;2022-12-29T07:15:41;10.40;99.90
13389;DHT22;6764;53.250;10.410;2022-12-29T07:18:06;10.40;99.90
13389;DHT22;6764;53.250;10.410;2022-12-29T07:20:32;10.40;99.90
13389;DHT22;6764;53.250;10.410;2022-12-29T07:22:58;10.40;99.90
13389;DHT22;6764;53.250;10.410;2022-12-29T07:25:24;10.40;99.90
13389;DHT22;6764;53.250;10.410;2022-12-29T07:27:50;10.40;99.90
13389;DHT22;6764;53.250;10.410;2022-12-29T07:30:16;10.50;99.90
13389;DHT22;6764;53.250;10.410;2022-12-29T07:32:41;10.50;99.90
13389;DHT22;6764;53.250;10.410;2022-12-29T07:35:07;10.50;99.90
13389;DHT22;6764;53.250;10.410;2022-12-29T07:37:33;10.50;99.90
13389;DHT22;6764;53.250;10.410;2022-12-29T07:40:00;10.50;99.90
13389;DHT22;6764;53.250;10.410;2022-12-29T07:42:26;10.50;99.90
13389;DHT22;6764;53.250;10.410;2022-12-29T07:44:52;10.50;99.90
13389;DHT22;6764;53.250;10.410;2022-12-29T07:47:17;10.50;99.90
13389;DHT22;6764;53.250;10.410;2022-12-29T07:49:43;10.50;99.90
13389;DHT22;6764;53.250;10.410;2022-12-29T07:52:08;10.50;99.90
13389;DHT22;6764;53.250;10.410;2022-12-29T07:54:34;10.50;99.90
13389;DHT22;6764;53.250;10.410;2022-12-29T07:57:00;10.50;99.90
13389;DHT22;6764;53.250;10.410;2022-12-29T07:59:25;10.50;99.90
13389;DHT22;6764;53.250;10.410;2022-12-29T08:01:52;10.50;99.90
13389;DHT22;6764;53.250;10.410;2022-12-29T08:04:17;10.50;99.90
13389;DHT22;6764;53.250;10.410;2022-12-29T08:06:43;10.50;99.90
13389;DHT22;6764;53.250;10.410;2022-12-29T08:09:11;10.40;99.90
13389;DHT22;6764;53.250;10.410;2022-12-29T08:11:37;10.40;99.90
13389;DHT22;6764;53.250;10.410;2022-12-29T08:14:03;10.40;99.90
13389;DHT22;6764;53.250;10.410;2022-12-29T08:16:29;10.40;99.90
13389;DHT22;6764;53.250;10.410;2022-12-29T08:18:54;10.40;99.90
13389;DHT22;6764;53.250;10.410;2022-12-29T08:21:20;10.40;99.90
13389;DHT22;6764;53.250;10.410;2022-12-29T08:23:47;10.40;99.90
13389;DHT22;6764;53.250;10.410;2022-12-29T08:26:13;10.30;99.90
13389;DHT22;6764;53.250;10.410;2022-12-29T08:28:38;10.30;99.90
13389;DHT22;6764;53.250;10.410;2022-12-29T08:31:04;10.30;99.90
13389;DHT22;6764;53.250;10.410;2022-12-29T08:33:30;10.30;99.90
13389;DHT22;6764;53.250;10.410;2022-12-29T08:36:04;10.40;99.90
13389;DHT22;6764;53.250;10.410;2022-12-29T08:38:30;10.40;99.90
13389;DHT22;6764;53.250;10.410;2022-12-29T08:40:57;10.30;99.90
13389;DHT22;6764;53.250;10.410;2022-12-29T08:43:23;10.40;99.90
13389;DHT22;6764;53.250;10.410;2022-12-29T08:45:48;10.30;99.90
13389;DHT22;6764;53.250;10.410;2022-12-29T08:48:14;10.30;99.90
13389;DHT22;6764;53.250;10.410;2022-12-29T08:50:43;10.20;99.90
13389;DHT22;6764;53.250;10.410;2022-12-29T08:53:09;10.20;99.90
13389;DHT22;6764;53.250;10.410;2022-12-29T08:55:35;10.20;99.90
13389;DHT22;6764;53.250;10.410;2022-12-29T08:58:01;10.20;99.90
13389;DHT22;6764;53.250;10.410;2022-12-29T09:00:26;10.20;99.90
13389;DHT22;6764;53.250;10.410;2022-12-29T09:02:52;10.20;99.90
13389;DHT22;6764;53.250;10.410;2022-12-29T09:05:17;10.20;99.90
13389;DHT22;6764;53.250;10.410;2022-12-29T09:07:43;10.20;99.90
13389;DHT22;6764;53.250;10.410;2022-12-29T09:10:09;10.20;99.90
13389;DHT22;6764;53.250;10.410;2022-12-29T09:12:34;10.20;99.90
13389;DHT22;6764;53.250;10.410;2022-12-29T09:15:00;10.30;99.90
13389;DHT22;6764;53.250;10.410;2022-12-29T09:17:26;10.20;99.90
13389;DHT22;6764;53.250;10.410;2022-12-29T09:20:14;10.20;99.90
13389;DHT22;6764;53.250;10.410;2022-12-29T09:22:40;10.20;99.90
13389;DHT22;6764;53.250;10.410;2022-12-29T09:25:06;10.20;99.90
13389;DHT22;6764;53.250;10.410;2022-12-29T09:27:32;10.20;99.90
13389;DHT22;6764;53.250;10.410;2022-12-29T09:29:58;10.20;99.90
13389;DHT22;6764;53.250;10.410;2022-12-29T09:32:24;10.10;99.90
13389;DHT22;6764;53.250;10.410;2022-12-29T09:34:49;10.10;99.90
13389;DHT22;6764;53.250;10.410;2022-12-29T09:37:15;10.10;99.90
13389;DHT22;6764;53.250;10.410;2022-12-29T09:39:40;10.10;99.90
13389;DHT22;6764;53.250;10.410;2022-12-29T09:44:54;10.10;99.90
13389;DHT22;6764;53.250;10.410;2022-12-29T09:47:23;10.10;99.90
13389;DHT22;6764;53.250;10.410;2022-12-29T09:52:34;10.10;99.90
13389;DHT22;6764;53.250;10.410;2022-12-29T09:55:13;10.20;99.90
13389;DHT22;6764;53.250;10.410;2022-12-29T09:57:53;10.30;99.90
13389;DHT22;6764;53.250;10.410;2022-12-29T10:00:22;10.40;99.90
13389;DHT22;6764;53.250;10.410;2022-12-29T10:02:57;10.40;99.90
13389;DHT22;6764;53.250;10.410;2022-12-29T10:05:56;10.40;99.90
13389;DHT22;6764;53.250;10.410;2022-12-29T10:11:14;10.60;99.90
13389;DHT22;6764;53.250;10.410;2022-12-29T10:14:01;10.60;99.90
13389;DHT22;6764;53.250;10.410;2022-12-29T10:22:15;10.70;99.90
13389;DHT22;6764;53.250;10.410;2022-12-29T10:24:47;10.70;99.90
13389;DHT22;6764;53.250;10.410;2022-12-29T10:27:15;10.70;99.90
13389;DHT22;6764;53.250;10.410;2022-12-29T10:29:52;10.60;99.90
13389;DHT22;6764;53.250;10.410;2022-12-29T10:32:39;10.60;99.90
13389;DHT22;6764;53.250;10.410;2022-12-29T10:35:12;10.60;99.90
13389;DHT22;6764;53.250;10.410;2022-12-29T10:37:45;10.70;99.90
13389;DHT22;6764;53.250;10.410;2022-12-29T10:40:27;10.70;99.90
13389;DHT22;6764;53.250;10.410;2022-12-29T10:42:56;10.60;99.90
13389;DHT22;6764;53.250;10.410;2022-12-29T10:45:26;10.70;99.90
13389;DHT22;6764;53.250;10.410;2022-12-29T10:48:03;10.70;99.90
13389;DHT22;6764;53.250;10.410;2022-12-29T10:50:30;10.70;99.90
13389;DHT22;6764;53.250;10.410;2022-12-29T10:53:00;10.80;99.90
13389;DHT22;6764;53.250;10.410;2022-12-29T10:55:32;10.70;99.90
13389;DHT22;6764;53.250;10.410;2022-12-29T10:58:02;10.80;99.90
13389;DHT22;6764;53.250;10.410;2022-12-29T11:00:31;10.70;99.90
13389;DHT22;6764;53.250;10.410;2022-12-29T11:03:16;10.80;99.90
13389;DHT22;6764;53.250;10.410;2022-12-29T11:06:32;10.90;99.90
13389;DHT22;6764;53.250;10.410;2022-12-29T11:08:57;11.00;99.90
13389;DHT22;6764;53.250;10.410;2022-12-29T11:11:28;11.10;99.90
13389;DHT22;6764;53.250;10.410;2022-12-29T11:16:37;11.20;99.90
13389;DHT22;6764;53.250;10.410;2022-12-29T11:19:03;11.20;99.90
13389;DHT22;6764;53.250;10.410;2022-12-29T11:21:37;11.30;99.90
13389;DHT22;6764;53.250;10.410;2022-12-29T11:24:24;11.30;99.90
13389;DHT22;6764;53.250;10.410;2022-12-29T11:26:52;11.50;99.90
13389;DHT22;6764;53.250;10.410;2022-12-29T11:29:36;11.60;99.90
13389;DHT22;6764;53.250;10.410;2022-12-29T11:32:12;11.60;99.90
13389;DHT22;6764;53.250;10.410;2022-12-29T11:34:38;11.60;99.90
13389;DHT22;6764;53.250;10.410;2022-12-29T11:37:12;11.60;99.90
13389;DHT22;6764;53.250;10.410;2022-12-29T11:39:52;11.70;99.90
13389;DHT22;6764;53.250;10.410;2022-12-29T11:42:29;11.80;99.90
13389;DHT22;6764;53.250;10.410;2022-12-29T11:45:05;11.70;99.90
13389;DHT22;6764;53.250;10.410;2022-12-29T11:47:32;11.70;99.90
13389;DHT22;6764;53.250;10.410;2022-12-29T11:50:04;11.90;99.90
13389;DHT22;6764;53.250;10.410;2022-12-29T11:52:33;11.90;99.90
13389;DHT22;6764;53.250;10.410;2022-12-29T11:55:03;11.80;99.90
13389;DHT22;6764;53.250;10.410;2022-12-29T11:57:33;11.70;99.90
13389;DHT22;6764;53.250;10.410;2022-12-29T12:00:03;11.80;99.90
13389;DHT22;6764;53.250;10.410;2022-12-29T12:08:00;11.60;99.90
13389;DHT22;6764;53.250;10.410;2022-12-29T12:10:31;11.60;99.90
13389;DHT22;6764;53.250;10.410;2022-12-29T12:15:58;11.60;99.90
13389;DHT22;6764;53.250;10.410;2022-12-29T12:18:44;11.80;99.90
13389;DHT22;6764;53.250;10.410;2022-12-29T12:21:13;11.80;99.90
13389;DHT22;6764;53.250;10.410;2022-12-29T12:24:21;11.90;99.90
13389;DHT22;6764;53.250;10.410;2022-12-29T12:29:55;11.80;99.90
13389;DHT22;6764;53.250;10.410;2022-12-29T12:32:58;11.80;99.90
13389;DHT22;6764;53.250;10.410;2022-12-29T12:41:20;11.70;99.90
13389;DHT22;6764;53.250;10.410;2022-12-29T12:47:01;11.70;99.90
13389;DHT22;6764;53.250;10.410;2022-12-29T12:55:15;11.60;99.90
13389;DHT22;6764;53.250;10.410;2022-12-29T13:11:55;11.90;99.90
13389;DHT22;6764;53.250;10.410;2022-12-29T13:14:51;11.80;99.90
13389;DHT22;6764;53.250;10.410;2022-12-29T13:17:34;11.90;99.90
13389;DHT22;6764;53.250;10.410;2022-12-29T13:22:57;11.70;99.90
13389;DHT22;6764;53.250;10.410;2022-12-29T13:25:33;11.70;99.90
13389;DHT22;6764;53.250;10.410;2022-12-29T13:28:26;11.70;99.90
13389;DHT22;6764;53.250;10.410;2022-12-29T13:31:03;11.70;99.90
13389;DHT22;6764;53.250;10.410;2022-12-29T13:36:49;11.70;99.90
13389;DHT22;6764;53.250;10.410;2022-12-29T13:41:55;11.70;99.90
13389;DHT22;6764;53.250;10.410;2022-12-29T13:44:35;11.60;99.90
13389;DHT22;6764;53.250;10.410;2022-12-29T13:47:38;11.60;99.90
13389;DHT22;6764;53.250;10.410;2022-12-29T13:50:12;11.50;99.90
13389;DHT22;6764;53.250;10.410;2022-12-29T13:55:45;11.60;99.90
13389;DHT22;6764;53.250;10.410;2022-12-29T14:01:08;11.60;99.90
13389;DHT22;6764;53.250;10.410;2022-12-29T14:03:53;11.60;99.90
13389;DHT22;6764;53.250;10.410;2022-12-29T14:06:22;11.60;99.90
13389;DHT22;6764;53.250;10.410;2022-12-29T14:11:32;11.50;99.90
13389;DHT22;6764;53.250;10.410;2022-12-29T14:13:59;11.60;99.90
13389;DHT22;6764;53.250;10.410;2022-12-29T14:16:35;11.60;99.90
13389;DHT22;6764;53.250;10.410;2022-12-29T14:19:09;11.60;99.90
13389;DHT22;6764;53.250;10.410;2022-12-29T14:21:36;11.60;99.90
13389;DHT22;6764;53.250;10.410;2022-12-29T14:34:50;11.40;99.90
13389;DHT22;6764;53.250;10.410;2022-12-29T14:37:34;11.40;99.90
13389;DHT22;6764;53.250;10.410;2022-12-29T14:40:23;11.40;99.90
13389;DHT22;6764;53.250;10.410;2022-12-29T14:42:52;11.30;99.90
13389;DHT22;6764;53.250;10.410;2022-12-29T14:47:49;11.20;99.90
13389;DHT22;6764;53.250;10.410;2022-12-29T14:50:23;11.00;99.90
13389;DHT22;6764;53.250;10.410;2022-12-29T14:53:01;11.00;99.90
13389;DHT22;6764;53.250;10.410;2022-12-29T14:58:12;10.90;99.90
13389;DHT22;6764;53.250;10.410;2022-12-29T15:00:40;10.80;99.90
13389;DHT22;6764;53.250;10.410;2022-12-29T15:08:29;10.70;99.90
13389;DHT22;6764;53.250;10.410;2022-12-29T15:11:15;10.60;99.90
13389;DHT22;6764;53.250;10.410;2022-12-29T15:16:56;10.50;99.90
13389;DHT22;6764;53.250;10.410;2022-12-29T15:19:22;10.40;99.90
13389;DHT22;6764;53.250;10.410;2022-12-29T15:21:48;10.40;99.90
13389;DHT22;6764;53.250;10.410;2022-12-29T15:24:14;10.30;99.90
13389;DHT22;6764;53.250;10.410;2022-12-29T15:26:42;10.20;99.90
13389;DHT22;6764;53.250;10.410;2022-12-29T15:29:50;10.10;99.90
13389;DHT22;6764;53.250;10.410;2022-12-29T15:34:48;10.00;99.90
13389;DHT22;6764;53.250;10.410;2022-12-29T15:37:27;10.00;99.90
13389;DHT22;6764;53.250;10.410;2022-12-29T15:39:54;10.00;99.90
13389;DHT22;6764;53.250;10.410;2022-12-29T15:45:06;9.90;99.90
13389;DHT22;6764;53.250;10.410;2022-12-29T15:47:34;9.90;99.90
13389;DHT22;6764;53.250;10.410;2022-12-29T15:50:04;9.90;99.90
13389;DHT22;6764;53.250;10.410;2022-12-29T15:52:32;9.90;99.90
13389;DHT22;6764;53.250;10.410;2022-12-29T15:54:59;9.90;99.90
13389;DHT22;6764;53.250;10.410;2022-12-29T15:57:28;9.80;99.90
13389;DHT22;6764;53.250;10.410;2022-12-29T15:59:55;9.80;99.90
13389;DHT22;6764;53.250;10.410;2022-12-29T16:02:24;9.80;99.90
13389;DHT22;6764;53.250;10.410;2022-12-29T16:04:51;9.80;99.90
13389;DHT22;6764;53.250;10.410;2022-12-29T16:07:35;9.80;99.90
13389;DHT22;6764;53.250;10.410;2022-12-29T16:10:01;9.80;99.90
13389;DHT22;6764;53.250;10.410;2022-12-29T16:12:37;9.80;99.90
13389;DHT22;6764;53.250;10.410;2022-12-29T16:15:06;9.80;99.90
13389;DHT22;6764;53.250;10.410;2022-12-29T16:17:36;9.70;99.90
13389;DHT22;6764;53.250;10.410;2022-12-29T16:20:04;9.70;99.90
13389;DHT22;6764;53.250;10.410;2022-12-29T16:22:45;9.70;99.90
13389;DHT22;6764;53.250;10.410;2022-12-29T16:25:32;9.70;99.90
13389;DHT22;6764;53.250;10.410;2022-12-29T16:28:00;9.60;99.90
13389;DHT22;6764;53.250;10.410;2022-12-29T16:30:31;9.60;99.90
13389;DHT22;6764;53.250;10.410;2022-12-29T16:33:00;9.50;99.90
13389;DHT22;6764;53.250;10.410;2022-12-29T16:35:44;9.50;99.90
13389;DHT22;6764;53.250;10.410;2022-12-29T16:38:21;9.50;99.90
13389;DHT22;6764;53.250;10.410;2022-12-29T16:40:58;9.60;99.90
13389;DHT22;6764;53.250;10.410;2022-12-29T16:43:29;9.70;99.90
13389;DHT22;6764;53.250;10.410;2022-12-29T16:48:33;9.70;99.90
13389;DHT22;6764;53.250;10.410;2022-12-29T16:53:42;9.80;99.90
13389;DHT22;6764;53.250;10.410;2022-12-29T16:56:18;9.80;99.90
13389;DHT22;6764;53.250;10.410;2022-12-29T16:58:55;9.80;99.90
13389;DHT22;6764;53.250;10.410;2022-12-29T17:01:24;9.80;99.90
13389;DHT22;6764;53.250;10.410;2022-12-29T17:04:13;9.80;99.90
13389;DHT22;6764;53.250;10.410;2022-12-29T17:06:39;9.80;99.90
13389;DHT22;6764;53.250;10.410;2022-12-29T17:09:21;9.80;99.90
13389;DHT22;6764;53.250;10.410;2022-12-29T17:11:52;9.80;99.90
13389;DHT22;6764;53.250;10.410;2022-12-29T17:14:44;9.90;99.90
13389;DHT22;6764;53.250;10.410;2022-12-29T17:17:19;9.80;99.90
13389;DHT22;6764;53.250;10.410;2022-12-29T17:19:57;9.80;99.90
13389;DHT22;6764;53.250;10.410;2022-12-29T17:22:26;9.80;99.90
13389;DHT22;6764;53.250;10.410;2022-12-29T17:24:53;9.80;99.90
13389;DHT22;6764;53.250;10.410;2022-12-29T17:29:51;9.70;99.90
13389;DHT22;6764;53.250;10.410;2022-12-29T17:32:17;9.70;99.90
13389;DHT22;6764;53.250;10.410;2022-12-29T17:34:42;9.60;99.90
13389;DHT22;6764;53.250;10.410;2022-12-29T17:37:37;9.60;99.90
13389;DHT22;6764;53.250;10.410;2022-12-29T17:40:06;9.50;99.90
13389;DHT22;6764;53.250;10.410;2022-12-29T17:42:32;9.40;99.90
13389;DHT22;6764;53.250;10.410;2022-12-29T17:45:03;9.40;99.90
13389;DHT22;6764;53.250;10.410;2022-12-29T17:47:29;9.30;99.90
13389;DHT22;6764;53.250;10.410;2022-12-29T17:49:54;9.30;99.90
13389;DHT22;6764;53.250;10.410;2022-12-29T17:52:20;9.40;99.90
13389;DHT22;6764;53.250;10.410;2022-12-29T17:54:51;9.40;99.90
13389;DHT22;6764;53.250;10.410;2022-12-29T17:57:18;9.40;99.90
13389;DHT22;6764;53.250;10.410;2022-12-29T17:59:44;9.50;99.90
13389;DHT22;6764;53.250;10.410;2022-12-29T18:02:28;9.50;99.90
13389;DHT22;6764;53.250;10.410;2022-12-29T18:04:56;9.60;99.90
13389;DHT22;6764;53.250;10.410;2022-12-29T18:07:23;9.60;99.90
13389;DHT22;6764;53.250;10.410;2022-12-29T18:09:50;9.70;99.90
13389;DHT22;6764;53.250;10.410;2022-12-29T18:12:29;9.70;99.90
13389;DHT22;6764;53.250;10.410;2022-12-29T18:14:55;9.70;99.90
13389;DHT22;6764;53.250;10.410;2022-12-29T18:17:21;9.70;99.90
13389;DHT22;6764;53.250;10.410;2022-12-29T18:19:47;9.70;99.90
13389;DHT22;6764;53.250;10.410;2022-12-29T18:22:15;9.70;99.90
13389;DHT22;6764;53.250;10.410;2022-12-29T18:24:40;9.70;99.90
13389;DHT22;6764;53.250;10.410;2022-12-29T18:27:13;9.60;99.90